Time;durP1;ratioP1;P1;durP2;ratioP2;P2;SDS_P1;SDS_P2;PMS_P1;PMS_P2;Temp;Humidity;BMP_temperature;BMP_pressure;BME280_temperature;BME280_humidity;BME280_pressure;Samples;Min_cycle;Max_cycle;Signal;HPM_P1;HPM_P2
2022/10/16 00:01:14;;;;;;;5.80;1.20;;;;;;;22.00;44.79;100935.31;5107137;28;20020;-74
2022/10/16 00:03:40;;;;;;;4.05;1.48;;;;;;;21.24;46.53;100946.50;5071339;28;20131;-74
2022/10/16 00:06:07;;;;;;;3.97;1.20;;;;;;;21.14;47.02;100946.13;5088666;28;20073;-75
2022/10/16 00:08:33;;;;;;;3.30;1.27;;;;;;;20.87;47.31;100943.09;5090170;28;20054;-75
2022/10/16 00:11:02;;;;;;;3.33;1.30;;;;;;;20.37;48.62;100934.94;5089572;28;20464;-74
2022/10/16 00:13:29;;;;;;;6.72;1.92;;;;;;;20.93;47.43;100948.13;5088176;28;20532;-74
2022/10/16 00:15:55;;;;;;;2.30;1.25;;;;;;;20.89;47.60;100951.88;5092723;28;20411;-75
2022/10/16 00:18:21;;;;;;;4.97;1.67;;;;;;;21.59;45.95;100954.44;5094114;28;20028;-75
2022/10/16 00:20:46;;;;;;;3.55;1.50;;;;;;;21.07;47.49;100958.88;5093804;28;20032;-74
2022/10/16 00:23:12;;;;;;;3.90;1.60;;;;;;;21.45;45.99;100956.00;5093732;28;20023;-75
2022/10/16 00:25:37;;;;;;;4.95;1.45;;;;;;;20.75;47.98;100956.09;5090969;28;20030;-74
2022/10/16 00:28:02;;;;;;;3.97;1.50;;;;;;;20.63;48.34;100962.00;5092883;28;20024;-75
2022/10/16 00:30:29;;;;;;;2.47;1.15;;;;;;;20.24;49.78;100971.00;5093865;28;20032;-74
2022/10/16 00:32:55;;;;;;;3.17;1.20;;;;;;;20.30;49.81;100965.38;5093926;28;20111;-75
2022/10/16 00:35:20;;;;;;;2.67;1.33;;;;;;;20.41;50.08;100951.56;5092980;28;20093;-74
2022/10/16 00:37:46;;;;;;;2.97;1.20;;;;;;;20.62;50.43;100944.31;5093541;28;20079;-74
2022/10/16 00:40:11;;;;;;;2.55;0.93;;;;;;;20.51;51.10;100948.41;5092653;28;20032;-73
2022/10/16 00:42:37;;;;;;;5.07;1.20;;;;;;;20.59;51.41;100949.81;5092565;28;20036;-74
2022/10/16 00:45:03;;;;;;;5.38;1.27;;;;;;;20.69;50.95;100945.78;5090089;28;20038;-74
2022/10/16 00:47:36;;;;;;;5.18;1.55;;;;;;;21.32;49.04;100946.94;5094488;28;20028;-74
2022/10/16 00:50:11;;;;;;;4.60;1.85;;;;;;;20.25;52.57;100949.69;5093223;28;20415;-74
2022/10/16 00:52:41;;;;;;;5.10;1.40;;;;;;;20.34;51.75;100945.72;5091287;28;20369;-74
2022/10/16 00:55:09;;;;;;;1.40;1.20;;;;;;;20.16;53.29;100958.94;5090898;28;20027;-74
2022/10/16 00:57:35;;;;;;;5.20;1.30;;;;;;;20.15;53.22;100962.53;5093001;28;20020;-74
2022/10/16 01:00:03;;;;;;;4.38;2.08;;;;;;;20.89;51.58;100949.22;5092144;28;20472;-74
2022/10/16 01:02:28;;;;;;;3.47;1.40;;;;;;;19.55;54.80;100940.56;5094179;28;20028;-74
2022/10/16 01:04:54;;;;;;;3.85;1.70;;;;;;;20.22;53.36;100935.69;5092243;28;20123;-74
2022/10/16 01:07:55;;;;;;;3.28;1.33;;;;;;;20.55;54.27;100913.72;5091691;28;20024;-75
2022/10/16 01:11:02;;;;;;;2.70;1.30;;;;;;;21.10;52.30;100908.25;5073026;28;20035;-74
2022/10/16 01:13:38;;;;;;;1.50;1.23;;;;;;;20.76;54.21;100925.94;5068984;28;20125;-74
2022/10/16 01:16:13;;;;;;;3.30;1.70;;;;;;;20.66;53.94;100929.97;5093013;28;20028;-75
2022/10/16 01:18:57;;;;;;;3.20;1.50;;;;;;;20.73;54.53;100936.72;5093947;28;20028;-74
2022/10/16 01:21:26;;;;;;;2.40;1.67;;;;;;;20.40;54.82;100937.47;5092161;28;20138;-74
2022/10/16 01:24:24;;;;;;;2.83;1.38;;;;;;;20.91;53.58;100944.66;5090167;28;20449;-74
2022/10/16 01:26:49;;;;;;;4.57;1.58;;;;;;;20.44;54.72;100944.34;5080738;28;20040;-75
2022/10/16 01:29:21;;;;;;;3.00;1.58;;;;;;;20.48;55.35;100942.38;5092557;28;20449;-74
2022/10/16 01:31:53;;;;;;;3.53;1.45;;;;;;;20.72;53.56;100953.59;5092107;28;20077;-73
2022/10/16 01:34:25;;;;;;;3.10;1.58;;;;;;;20.88;53.31;100956.31;5091708;28;20435;-74
2022/10/16 01:37:00;;;;;;;2.05;1.20;;;;;;;20.56;53.98;100953.47;5090946;28;20030;-74
2022/10/16 01:39:31;;;;;;;4.53;1.45;;;;;;;20.11;56.73;100955.66;5092845;28;20035;-74
2022/10/16 01:42:25;;;;;;;7.47;1.70;;;;;;;20.60;53.89;100951.53;5091634;28;20020;-74
2022/10/16 01:44:53;;;;;;;4.00;1.55;;;;;;;20.99;53.29;100958.41;5092196;28;20024;-75
2022/10/16 01:47:23;;;;;;;2.17;1.58;;;;;;;20.73;54.00;100957.97;5092086;28;20118;-74
2022/10/16 01:49:50;;;;;;;6.00;1.70;;;;;;;20.25;57.12;100954.13;5090729;28;20028;-74
2022/10/16 01:52:21;;;;;;;5.72;1.70;;;;;;;20.77;54.03;100962.19;5090036;28;20053;-74
2022/10/16 01:54:50;;;;;;;2.88;1.42;;;;;;;20.82;52.94;100962.81;5091373;28;20063;-74
2022/10/16 01:57:16;;;;;;;4.82;1.60;;;;;;;21.35;50.19;100957.44;5093132;28;20027;-74
2022/10/16 01:59:47;;;;;;;2.78;1.80;;;;;;;21.32;51.32;100965.56;5090738;28;20035;-74
2022/10/16 02:02:15;;;;;;;4.88;2.10;;;;;;;21.39;51.11;100966.97;5092438;28;20574;-74
2022/10/16 02:04:46;;;;;;;4.53;2.00;;;;;;;20.72;52.76;100966.00;5091064;28;20468;-74
2022/10/16 02:07:12;;;;;;;2.83;1.77;;;;;;;20.99;52.46;100971.69;5090459;28;20039;-74
2022/10/16 02:09:38;;;;;;;2.60;2.00;;;;;;;20.56;53.01;100972.06;5089473;28;20032;-74
2022/10/16 02:12:10;;;;;;;2.58;2.00;;;;;;;21.11;51.51;100975.53;5090530;28;20446;-74
2022/10/16 02:14:38;;;;;;;3.15;2.03;;;;;;;21.43;51.41;100972.97;5091736;28;20074;-74
2022/10/16 02:17:13;;;;;;;5.10;2.10;;;;;;;21.11;50.88;100979.03;5091435;28;20494;-74
2022/10/16 02:19:39;;;;;;;4.78;1.98;;;;;;;21.42;50.45;100982.75;5091466;28;20500;-74
2022/10/16 02:22:06;;;;;;;3.38;2.63;;;;;;;21.52;51.28;100973.38;5090671;28;20034;-74
2022/10/16 02:24:47;;;;;;;5.57;2.08;;;;;;;21.43;50.71;100981.81;5090592;28;20472;-73
2022/10/16 02:27:44;;;;;;;8.05;2.22;;;;;;;22.20;48.76;100969.66;5091868;28;20039;-74
2022/10/16 02:30:16;;;;;;;6.97;2.10;;;;;;;20.26;55.30;100979.72;5088893;28;20708;-74
2022/10/16 02:32:45;;;;;;;4.50;1.98;;;;;;;20.78;53.65;100978.97;5090463;28;20506;-74
2022/10/16 02:35:12;;;;;;;5.05;2.10;;;;;;;21.15;51.22;100983.25;5091295;28;20020;-75
2022/10/16 02:37:40;;;;;;;6.75;2.25;;;;;;;20.27;53.76;100976.16;5109635;28;20088;-74
2022/10/16 02:40:07;;;;;;;3.20;1.50;;;;;;;20.49;54.16;100982.09;5111475;28;20527;-75
2022/10/16 02:42:38;;;;;;;4.25;1.90;;;;;;;21.27;52.20;100986.22;5111698;28;20142;-74
2022/10/16 02:45:05;;;;;;;2.28;1.95;;;;;;;20.58;53.79;100982.59;5104527;28;20051;-74
2022/10/16 02:47:30;;;;;;;3.75;1.77;;;;;;;20.77;53.38;100975.47;5088346;28;20035;-74
2022/10/16 02:49:56;;;;;;;6.22;2.08;;;;;;;20.40;54.18;100987.00;5090979;28;20028;-74
2022/10/16 02:52:21;;;;;;;3.92;1.90;;;;;;;20.31;54.86;100977.72;5089185;28;20040;-74
2022/10/16 02:54:47;;;;;;;3.80;1.85;;;;;;;21.42;52.01;100969.47;5091003;28;20031;-75
2022/10/16 02:57:12;;;;;;;8.90;2.13;;;;;;;21.46;50.27;100965.69;5090630;28;20028;-74
2022/10/16 02:59:38;;;;;;;2.70;1.73;;;;;;;20.98;52.75;100952.25;5089525;28;20035;-74
2022/10/16 03:02:03;;;;;;;1.58;1.40;;;;;;;20.53;53.27;100958.09;5089651;28;20023;-74
2022/10/16 03:04:29;;;;;;;4.47;1.95;;;;;;;19.43;57.81;100966.72;5090214;28;20039;-74
2022/10/16 03:06:54;;;;;;;9.32;1.80;;;;;;;19.45;57.85;100978.13;5089720;28;20169;-73
2022/10/16 03:09:19;;;;;;;2.88;1.38;;;;;;;20.91;53.80;100960.59;5089893;28;20036;-74
2022/10/16 03:11:45;;;;;;;3.05;1.73;;;;;;;20.30;54.98;100981.31;5090228;28;20085;-75
2022/10/16 03:14:10;;;;;;;4.72;1.75;;;;;;;20.17;56.38;100981.88;5089690;28;20035;-74
2022/10/16 03:16:36;;;;;;;2.58;1.40;;;;;;;20.25;56.26;100985.97;5091998;28;20526;-74
2022/10/16 03:19:01;;;;;;;3.22;1.80;;;;;;;20.68;53.98;100981.25;5091888;28;20032;-74
2022/10/16 03:21:26;;;;;;;5.18;1.83;;;;;;;19.61;56.82;100993.31;5088455;28;20024;-74
2022/10/16 03:23:52;;;;;;;3.65;2.15;;;;;;;21.05;53.85;100987.34;5090491;28;20040;-74
2022/10/16 03:26:17;;;;;;;4.22;1.75;;;;;;;20.92;52.56;100999.53;5090343;28;20020;-73
2022/10/16 03:28:43;;;;;;;3.92;1.67;;;;;;;20.12;57.40;100994.50;5089445;28;20031;-74
2022/10/16 03:31:08;;;;;;;6.13;1.85;;;;;;;21.60;51.40;101001.38;5090870;28;20118;-74
2022/10/16 03:33:33;;;;;;;3.00;2.05;;;;;;;21.07;53.58;101009.38;5084207;28;20476;-74
2022/10/16 03:36:00;;;;;;;4.85;1.67;;;;;;;21.25;51.44;101009.34;5086820;28;20024;-74
2022/10/16 03:38:25;;;;;;;4.60;1.73;;;;;;;20.07;55.18;101007.16;5071648;28;20036;-74
2022/10/16 03:40:50;;;;;;;3.50;2.00;;;;;;;21.33;52.50;101004.50;5081943;28;20033;-74
2022/10/16 03:43:16;;;;;;;3.70;1.95;;;;;;;20.59;55.37;101002.91;5088940;28;20115;-74
2022/10/16 03:45:41;;;;;;;3.90;1.88;;;;;;;20.74;53.59;101011.94;5091613;28;20032;-74
2022/10/16 03:48:06;;;;;;;4.38;1.42;;;;;;;20.43;55.00;101013.41;5089713;28;20364;-74
2022/10/16 03:50:32;;;;;;;1.70;1.52;;;;;;;20.80;53.06;101017.81;5091833;28;20028;-75
2022/10/16 03:52:57;;;;;;;1.85;1.60;;;;;;;21.30;52.68;101023.28;5084673;28;20495;-74
2022/10/16 03:55:22;;;;;;;4.80;1.60;;;;;;;21.14;51.94;101023.19;5093345;28;20111;-74
2022/10/16 03:57:48;;;;;;;6.95;1.83;;;;;;;21.02;53.77;101016.75;5091844;28;20727;-74
2022/10/16 04:00:13;;;;;;;3.15;1.75;;;;;;;21.44;51.39;101020.75;5092602;28;20115;-74
2022/10/16 04:02:39;;;;;;;2.90;1.45;;;;;;;20.62;54.47;101035.50;5092791;28;20487;-74
2022/10/16 04:05:05;;;;;;;2.53;1.30;;;;;;;19.91;55.97;101037.97;5094025;28;20038;-74
2022/10/16 04:07:30;;;;;;;3.03;1.30;;;;;;;19.29;58.34;101038.03;5094830;28;20036;-74
2022/10/16 04:09:57;;;;;;;1.95;1.52;;;;;;;19.85;57.41;101039.09;5105217;28;20032;-74
2022/10/16 04:12:23;;;;;;;4.35;1.48;;;;;;;20.84;53.04;101039.75;5097234;28;20023;-74
2022/10/16 04:14:48;;;;;;;3.47;1.48;;;;;;;21.55;51.47;101040.63;5093957;28;20032;-74
2022/10/16 04:17:13;;;;;;;4.57;1.42;;;;;;;20.59;54.90;101040.94;5094126;28;20028;-74
2022/10/16 04:19:39;;;;;;;5.10;1.30;;;;;;;20.81;54.21;101046.09;5093089;28;20024;-74
2022/10/16 04:22:04;;;;;;;4.30;1.77;;;;;;;19.87;56.80;101052.31;5094894;28;20035;-74
2022/10/16 04:24:30;;;;;;;4.07;1.40;;;;;;;20.86;54.93;101047.66;5091897;28;20023;-74
2022/10/16 04:26:55;;;;;;;4.20;1.25;;;;;;;20.69;53.61;101052.03;5093453;28;20032;-74
2022/10/16 04:29:20;;;;;;;3.92;1.40;;;;;;;20.63;55.33;101054.94;5092895;28;20024;-74
2022/10/16 04:31:46;;;;;;;4.35;1.70;;;;;;;20.64;54.54;101054.00;5090620;28;20154;-74
2022/10/16 04:34:12;;;;;;;2.75;1.40;;;;;;;21.27;51.58;101058.84;5094437;28;20028;-74
2022/10/16 04:36:37;;;;;;;10.07;1.73;;;;;;;20.89;54.09;101063.44;5092553;28;20039;-74
2022/10/16 04:39:02;;;;;;;7.05;1.40;;;;;;;21.13;52.55;101071.97;5094519;28;20024;-75
2022/10/16 04:41:28;;;;;;;3.10;1.35;;;;;;;20.17;57.25;101079.22;5092015;28;20058;-74
2022/10/16 04:43:53;;;;;;;4.50;1.63;;;;;;;20.47;56.03;101079.56;5092526;28;20491;-75
2022/10/16 04:46:19;;;;;;;5.18;1.38;;;;;;;20.28;55.73;101084.03;5092827;28;20039;-74
2022/10/16 04:48:44;;;;;;;4.00;1.30;;;;;;;19.31;59.25;101091.81;5091961;28;20043;-74
2022/10/16 04:51:09;;;;;;;3.55;1.50;;;;;;;19.86;57.89;101099.19;5092328;28;20054;-74
2022/10/16 04:53:35;;;;;;;5.30;1.48;;;;;;;20.56;55.96;101103.97;5091947;28;20452;-74
2022/10/16 04:56:00;;;;;;;5.10;1.52;;;;;;;21.41;53.79;101086.53;5091706;28;20162;-74
2022/10/16 04:58:25;;;;;;;1.55;1.42;;;;;;;20.23;57.27;101097.50;5092125;28;20032;-74
2022/10/16 05:00:51;;;;;;;3.92;1.55;;;;;;;21.00;53.53;101115.09;5090424;28;20085;-74
2022/10/16 05:03:16;;;;;;;2.50;1.50;;;;;;;20.77;55.12;101112.72;5093167;28;20020;-74
2022/10/16 05:05:44;;;;;;;4.65;1.77;;;;;;;19.60;60.06;101118.84;5091937;28;20120;-74
2022/10/16 05:08:09;;;;;;;2.17;1.15;;;;;;;21.15;53.78;101121.44;5092391;28;20101;-74
2022/10/16 05:10:34;;;;;;;3.65;1.40;;;;;;;20.76;56.05;101121.59;5093033;28;20475;-73
2022/10/16 05:13:00;;;;;;;4.35;1.40;;;;;;;20.29;57.84;101122.88;5090884;28;20140;-74
2022/10/16 05:15:25;;;;;;;3.78;1.92;;;;;;;20.74;56.00;101124.34;5092717;28;20024;-74
2022/10/16 05:17:55;;;;;;;4.93;1.42;;;;;;;20.81;53.88;101133.75;5091382;28;20118;-74
2022/10/16 05:20:21;;;;;;;3.35;1.58;;;;;;;19.92;60.01;101132.53;5088652;28;20029;-74
2022/10/16 05:22:47;;;;;;;7.35;1.77;;;;;;;20.98;54.07;101129.41;5073542;28;20020;-74
2022/10/16 05:25:12;;;;;;;3.08;1.20;;;;;;;20.82;56.91;101132.81;5102356;27;20031;-73
2022/10/16 05:27:38;;;;;;;2.33;1.70;;;;;;;21.31;53.48;101145.47;5091447;28;20120;-73
2022/10/16 05:30:04;;;;;;;3.35;1.40;;;;;;;20.53;57.32;101136.81;5090642;28;20392;-74
2022/10/16 05:32:29;;;;;;;4.82;1.80;;;;;;;20.33;58.17;101140.41;5092284;28;20484;-74
2022/10/16 05:34:54;;;;;;;7.20;1.60;;;;;;;20.31;57.31;101144.94;5092668;28;20066;-74
2022/10/16 05:37:20;;;;;;;5.43;1.38;;;;;;;21.58;53.82;101144.19;5090412;28;20053;-75
2022/10/16 05:39:45;;;;;;;4.78;1.73;;;;;;;21.59;54.06;101148.56;5092003;28;20102;-75
2022/10/16 05:42:10;;;;;;;2.63;1.40;;;;;;;21.67;53.25;101152.53;5091288;28;20023;-74
2022/10/16 05:44:36;;;;;;;8.38;1.50;;;;;;;20.49;55.70;101167.09;5093925;28;20024;-75
2022/10/16 05:47:01;;;;;;;2.45;1.30;;;;;;;20.71;55.16;101172.31;5090577;28;20038;-74
2022/10/16 05:49:26;;;;;;;3.33;1.27;;;;;;;20.20;58.42;101168.44;5091187;28;20038;-75
2022/10/16 05:51:52;;;;;;;4.60;1.67;;;;;;;20.03;56.95;101169.19;5088404;28;20032;-74
2022/10/16 05:54:17;;;;;;;6.47;1.60;;;;;;;20.48;57.94;101176.88;5089537;28;20569;-75
2022/10/16 05:56:43;;;;;;;8.43;1.50;;;;;;;20.80;56.88;101168.34;5091731;28;20384;-74
2022/10/16 05:59:08;;;;;;;3.95;1.40;;;;;;;19.88;59.26;101176.03;5090384;28;20028;-75
2022/10/16 06:01:35;;;;;;;4.72;1.40;;;;;;;21.16;54.22;101173.69;5091445;28;20291;-74
2022/10/16 06:04:01;;;;;;;5.25;1.40;;;;;;;20.15;58.34;101176.59;5090402;28;20081;-75
2022/10/16 06:06:29;;;;;;;2.63;1.50;;;;;;;20.62;57.56;101183.31;5089753;28;20093;-75
2022/10/16 06:08:56;;;;;;;6.70;1.45;;;;;;;19.91;58.44;101186.53;5093456;28;20036;-75
2022/10/16 06:11:24;;;;;;;4.40;1.40;;;;;;;20.37;59.79;101195.06;5091376;28;20039;-74
2022/10/16 06:13:51;;;;;;;5.65;1.60;;;;;;;20.74;56.04;101188.09;5090230;28;20028;-75
2022/10/16 06:16:16;;;;;;;3.78;1.50;;;;;;;20.48;57.69;101191.94;5089463;28;20369;-74
2022/10/16 06:18:42;;;;;;;1.75;1.17;;;;;;;20.50;57.68;101196.25;5090178;28;20089;-74
2022/10/16 06:21:16;;;;;;;6.50;1.77;;;;;;;19.77;58.92;101181.75;5095665;28;20031;-72
2022/10/16 06:23:41;;;;;;;3.92;1.75;;;;;;;20.04;55.91;101187.69;5090702;28;20024;-75
2022/10/16 06:26:12;;;;;;;2.45;0.93;;;;;;;20.17;56.53;101198.63;5088730;28;20900;-74
2022/10/16 06:28:38;;;;;;;6.10;1.17;;;;;;;21.18;51.79;101201.06;5094152;28;20031;-74
2022/10/16 06:31:05;;;;;;;7.93;1.35;;;;;;;20.50;52.73;101201.56;5089985;28;20485;-75
2022/10/16 06:33:31;;;;;;;2.05;0.75;;;;;;;20.35;54.29;101207.56;5090743;28;20106;-75
2022/10/16 06:36:02;;;;;;;2.65;0.70;;;;;;;20.01;52.83;101203.75;5090224;28;20592;-75
2022/10/16 06:38:27;;;;;;;3.90;0.85;;;;;;;19.38;55.44;101201.94;5091316;28;20035;-75
2022/10/16 06:40:53;;;;;;;3.85;0.80;;;;;;;19.54;54.13;101199.53;5110683;27;20111;-75
2022/10/16 06:43:18;;;;;;;3.70;0.90;;;;;;;20.06;52.43;101201.75;5107263;28;20027;-75
2022/10/16 06:45:53;;;;;;;3.17;0.73;;;;;;;19.81;53.94;101213.44;5089374;28;20040;-75
2022/10/16 06:48:19;;;;;;;4.10;0.98;;;;;;;20.39;54.02;101213.56;5090324;28;20059;-75
2022/10/16 06:50:54;;;;;;;6.03;1.23;;;;;;;20.39;54.17;101219.78;5089443;28;20124;-75
2022/10/16 06:53:19;;;;;;;5.50;1.45;;;;;;;19.13;60.59;101232.06;5090014;28;20051;-75
2022/10/16 06:55:45;;;;;;;4.28;1.10;;;;;;;20.38;55.37;101230.47;5104643;28;20039;-75
2022/10/16 06:58:10;;;;;;;5.03;1.30;;;;;;;20.39;57.22;101233.03;5104046;28;20028;-75
2022/10/16 07:00:35;;;;;;;3.00;1.17;;;;;;;20.90;55.16;101240.53;5089901;28;20024;-75
2022/10/16 07:03:01;;;;;;;5.20;1.05;;;;;;;20.67;53.58;101245.06;5090454;28;20177;-75
2022/10/16 07:05:26;;;;;;;3.50;1.45;;;;;;;20.51;55.02;101251.06;5089076;28;20028;-75
2022/10/16 07:07:51;;;;;;;3.45;0.93;;;;;;;19.48;59.01;101264.25;5090338;28;20031;-75
2022/10/16 07:10:17;;;;;;;5.10;1.30;;;;;;;20.33;56.39;101262.50;5090710;28;20028;-75
2022/10/16 07:12:44;;;;;;;4.97;1.30;;;;;;;19.90;57.46;101259.91;5089898;28;20028;-75
2022/10/16 07:15:10;;;;;;;4.78;1.50;;;;;;;19.66;58.63;101283.84;5091134;28;20020;-76
2022/10/16 07:17:35;;;;;;;7.85;1.35;;;;;;;19.91;58.35;101276.72;5089209;28;20028;-74
2022/10/16 07:20:01;;;;;;;9.63;1.23;;;;;;;19.82;57.97;101292.09;5089349;28;20039;-74
2022/10/16 07:22:28;;;;;;;2.83;1.20;;;;;;;20.00;57.74;101292.22;5097516;28;20020;-74
2022/10/16 07:24:53;;;;;;;9.48;1.70;;;;;;;20.54;56.86;101302.31;5096039;28;20032;-74
2022/10/16 07:27:19;;;;;;;2.50;1.42;;;;;;;20.17;57.10;101307.44;5087995;28;20115;-74
2022/10/16 07:29:44;;;;;;;9.05;2.20;;;;;;;20.24;57.59;101305.38;5090375;28;20065;-74
2022/10/16 07:32:09;;;;;;;7.07;1.67;;;;;;;20.41;58.61;101317.91;5090542;28;20028;-74
2022/10/16 07:34:35;;;;;;;3.25;1.60;;;;;;;21.10;55.97;101317.50;5089765;28;20090;-74
2022/10/16 07:37:00;;;;;;;2.53;1.42;;;;;;;21.05;55.52;101324.81;5088484;28;20024;-74
2022/10/16 07:39:25;;;;;;;7.20;1.95;;;;;;;21.41;52.86;101324.00;5089622;28;20491;-74
2022/10/16 07:41:51;;;;;;;4.25;1.73;;;;;;;21.83;52.53;101338.88;5090412;28;20422;-74
2022/10/16 07:44:16;;;;;;;6.47;1.45;;;;;;;21.65;52.74;101340.63;5098598;28;20111;-74
2022/10/16 07:46:41;;;;;;;7.75;1.95;;;;;;;21.66;53.15;101344.13;5089880;28;20035;-74
2022/10/16 07:49:08;;;;;;;7.03;1.80;;;;;;;20.73;57.41;101340.44;5088544;28;20067;-75
2022/10/16 07:51:33;;;;;;;7.20;1.70;;;;;;;20.58;56.07;101346.38;5090398;28;20024;-74
2022/10/16 07:53:59;;;;;;;6.30;1.40;;;;;;;21.21;55.91;101345.38;5090329;28;20089;-75
2022/10/16 07:56:24;;;;;;;5.43;1.27;;;;;;;20.02;56.75;101363.78;5085501;28;20127;-74
2022/10/16 07:58:50;;;;;;;7.82;1.50;;;;;;;20.40;55.83;101363.97;5083283;28;20030;-74
2022/10/16 08:01:17;;;;;;;3.03;1.52;;;;;;;21.01;55.37;101357.78;5089012;28;20028;-74
2022/10/16 08:03:49;;;;;;;5.47;1.13;;;;;;;20.77;56.01;101363.28;5090109;28;20039;-74
2022/10/16 08:06:15;;;;;;;7.82;1.20;;;;;;;20.88;54.78;101370.75;5090248;28;20024;-74
2022/10/16 08:08:40;;;;;;;2.03;1.05;;;;;;;20.91;56.17;101385.69;5090633;28;20115;-75
2022/10/16 08:11:06;;;;;;;10.02;1.73;;;;;;;20.29;57.42;101388.31;5089640;28;20118;-75
2022/10/16 08:13:32;;;;;;;2.47;1.10;;;;;;;20.38;57.25;101397.69;5088337;28;20490;-74
2022/10/16 08:15:57;;;;;;;6.93;1.33;;;;;;;21.55;54.05;101394.34;5089220;28;20060;-74
2022/10/16 08:18:23;;;;;;;3.38;1.10;;;;;;;21.61;53.12;101386.06;5089116;28;20044;-74
2022/10/16 08:20:55;;;;;;;4.35;1.10;;;;;;;21.12;54.58;101383.88;5091442;28;20030;-74
2022/10/16 08:23:20;;;;;;;4.15;1.40;;;;;;;21.34;54.23;101399.69;5088888;28;20411;-75
2022/10/16 08:25:46;;;;;;;8.98;1.40;;;;;;;21.34;53.87;101399.69;5089857;28;20111;-74
2022/10/16 08:28:11;;;;;;;5.15;1.40;;;;;;;22.07;52.29;101402.44;5087975;28;20028;-75
2022/10/16 08:30:37;;;;;;;8.38;1.30;;;;;;;20.68;56.60;101411.50;5084225;28;20031;-74
2022/10/16 08:33:03;;;;;;;8.48;1.67;;;;;;;20.86;55.70;101408.97;5072722;28;20036;-75
2022/10/16 08:35:28;;;;;;;10.68;1.45;;;;;;;21.15;55.11;101400.53;5072790;28;20036;-74
2022/10/16 08:37:54;;;;;;;6.93;2.05;;;;;;;21.67;52.76;101412.38;5088113;28;20107;-74
2022/10/16 08:40:25;;;;;;;7.82;1.83;;;;;;;21.21;55.67;101425.09;5094448;28;20395;-74
2022/10/16 08:43:06;;;;;;;5.88;1.42;;;;;;;21.01;54.88;101418.91;5092813;28;20492;-74
2022/10/16 08:46:23;;;;;;;5.75;2.03;;;;;;;21.64;54.04;101436.47;5093046;28;20020;-73
2022/10/16 08:48:51;;;;;;;11.48;2.35;;;;;;;22.26;50.55;101433.50;5065786;28;20043;-73
2022/10/16 08:51:24;;;;;;;27.70;2.25;;;;;;;22.43;50.88;101438.84;5091009;28;20016;-74
2022/10/16 08:53:57;;;;;;;;;;;;;;;22.67;50.31;101441.22;5109686;28;20050;-74
2022/10/16 08:56:24;;;;;;;9.65;1.85;;;;;;;22.75;48.73;101439.03;5093516;28;20326;-74
2022/10/16 08:58:51;;;;;;;11.90;2.10;;;;;;;22.81;51.06;101433.38;5093012;28;20031;-74
2022/10/16 09:01:19;;;;;;;7.18;2.08;;;;;;;22.47;51.50;101445.75;5094305;28;21075;-74
2022/10/16 09:03:53;;;;;;;9.95;1.70;;;;;;;22.74;50.34;101457.72;5090709;28;20085;-74
2022/10/16 09:06:28;;;;;;;6.45;1.58;;;;;;;23.99;47.08;101453.75;5107238;28;20494;-74
2022/10/16 09:09:15;;;;;;;8.60;1.98;;;;;;;23.03;49.85;101462.41;5109602;27;20028;-74
2022/10/16 09:11:49;;;;;;;9.75;1.80;;;;;;;22.60;49.64;101461.09;5090370;28;20028;-75
2022/10/16 09:14:14;;;;;;;9.75;1.80;;;;;;;22.86;48.59;101468.63;5109486;28;20059;-74
2022/10/16 09:16:49;;;;;;;8.57;2.00;;;;;;;23.21;48.60;101457.94;5109783;28;20020;-74
2022/10/16 09:19:28;;;;;;;8.18;1.73;;;;;;;22.03;50.95;101462.09;5090648;28;20028;-74
2022/10/16 09:21:55;;;;;;;9.10;1.58;;;;;;;23.99;46.87;101475.13;5092637;28;20023;-74
2022/10/16 09:24:23;;;;;;;12.50;1.70;;;;;;;23.00;49.03;101470.59;5093987;28;20024;-73
2022/10/16 09:26:49;;;;;;;11.52;1.98;;;;;;;22.61;49.05;101478.81;5091852;28;20391;-74
2022/10/16 09:29:19;;;;;;;6.82;1.73;;;;;;;22.91;50.02;101480.88;5091224;28;20032;-74
2022/10/16 09:31:45;;;;;;;9.00;1.88;;;;;;;23.12;48.50;101474.44;5091120;28;20035;-74
2022/10/16 09:34:31;;;;;;;3.92;1.52;;;;;;;23.15;48.00;101474.28;5092020;28;20036;-74
2022/10/16 09:36:59;;;;;;;13.77;1.90;;;;;;;23.54;48.04;101474.88;5089016;28;20029;-75
2022/10/16 09:39:25;;;;;;;8.40;1.30;;;;;;;23.42;48.39;101481.72;5103810;27;20031;-73
2022/10/16 09:41:51;;;;;;;7.07;1.70;;;;;;;23.87;47.78;101481.97;5102620;27;20035;-73
2022/10/16 09:44:25;;;;;;;9.82;1.63;;;;;;;23.18;48.63;101483.94;5094864;28;20036;-72
2022/10/16 09:47:02;;;;;;;9.55;1.90;;;;;;;22.48;49.76;101490.09;5089825;28;20028;-73
2022/10/16 09:49:27;;;;;;;9.50;1.85;;;;;;;22.87;49.09;101486.38;5089952;28;20023;-73
2022/10/16 09:52:25;;;;;;;11.15;1.75;;;;;;;24.11;45.16;101489.56;5108181;27;20035;-73
2022/10/16 09:55:09;;;;;;;11.80;3.05;;;;;;;23.89;46.44;101490.75;5052675;28;20048;-73
2022/10/16 09:57:34;;;;;;;8.35;1.50;;;;;;;22.41;49.27;101493.13;5091356;28;20114;-73
2022/10/16 10:00:00;;;;;;;8.57;2.15;;;;;;;24.18;45.18;101488.25;5086233;28;20111;-73
2022/10/16 10:02:37;;;;;;;12.95;2.05;;;;;;;23.73;46.31;101496.09;5091694;28;20035;-74
2022/10/16 10:05:16;;;;;;;11.02;2.20;;;;;;;24.58;44.92;101493.09;5088009;28;20115;-73
2022/10/16 10:07:45;;;;;;;7.53;1.70;;;;;;;24.14;45.91;101500.94;5089877;28;20020;-73
2022/10/16 10:10:22;;;;;;;12.00;2.15;;;;;;;24.25;44.31;101507.47;5091620;28;20019;-74
2022/10/16 10:12:48;;;;;;;6.70;1.63;;;;;;;25.30;42.58;101495.97;5091682;28;20031;-73
2022/10/16 10:15:24;;;;;;;9.10;1.52;;;;;;;24.54;43.20;101493.28;5089755;28;20023;-73
2022/10/16 10:17:57;;;;;;;11.10;2.13;;;;;;;24.47;43.99;101497.28;5092319;28;20069;-73
2022/10/16 10:20:38;;;;;;;11.15;2.40;;;;;;;23.31;45.39;101492.13;5090876;28;20039;-73
2022/10/16 10:23:25;;;;;;;9.82;1.77;;;;;;;25.12;42.36;101509.50;5091753;28;20028;-73
2022/10/16 10:26:07;;;;;;;8.30;1.40;;;;;;;23.98;43.81;101510.75;5091369;28;20020;-73
2022/10/16 10:28:55;;;;;;;7.90;1.37;;;;;;;25.52;41.02;101517.75;5088912;28;20039;-73
2022/10/16 10:31:38;;;;;;;10.57;1.75;;;;;;;24.25;43.68;101523.50;5089790;28;20519;-72
2022/10/16 10:34:22;;;;;;;;;;;;;;;24.63;42.60;101523.97;5091847;28;20030;-73
2022/10/16 10:37:10;;;;;;;11.55;1.50;;;;;;;24.89;42.58;101529.59;5090512;28;19935;-73
2022/10/16 10:39:49;;;;;;;10.15;1.80;;;;;;;26.62;39.84;101528.66;5089769;28;20062;-72
2022/10/16 10:42:31;;;;;;;9.05;1.60;;;;;;;26.85;38.44;101536.00;5087975;28;20024;-74
2022/10/16 10:45:17;;;;;;;12.75;1.98;;;;;;;27.06;37.16;101535.50;5086757;28;20024;-72
2022/10/16 10:47:52;;;;;;;7.85;1.48;;;;;;;27.38;37.06;101533.31;5086324;28;20118;-73
2022/10/16 10:50:39;;;;;;;9.60;2.13;;;;;;;25.82;38.73;101534.69;5090921;28;20036;-73
2022/10/16 10:53:13;;;;;;;7.55;1.75;;;;;;;27.19;35.90;101536.38;5086585;28;20044;-72
2022/10/16 10:55:53;;;;;;;8.38;1.70;;;;;;;26.20;36.83;101540.28;5084830;28;20054;-73
2022/10/16 10:58:21;;;;;;;14.30;2.13;;;;;;;25.21;38.68;101549.06;5089705;28;20089;-73
2022/10/16 11:01:13;;;;;;;9.90;1.88;;;;;;;25.96;37.89;101548.03;5090740;28;20031;-73
2022/10/16 11:03:52;;;;;;;11.45;1.80;;;;;;;26.57;37.06;101542.34;5090609;28;20085;-73
2022/10/16 11:06:30;;;;;;;6.15;1.40;;;;;;;25.01;38.46;101550.25;5090456;28;20062;-73
2022/10/16 11:09:10;;;;;;;9.68;1.60;;;;;;;25.95;37.31;101548.13;5089606;28;20044;-73
2022/10/16 11:11:46;;;;;;;10.43;2.65;;;;;;;25.95;36.59;101556.16;5090042;28;20023;-74
2022/10/16 11:14:33;;;;;;;10.20;1.80;;;;;;;25.18;37.31;101567.09;5090776;28;20394;-72
2022/10/16 11:17:18;;;;;;;12.60;1.95;;;;;;;26.31;35.95;101562.81;5088458;28;20620;-73
2022/10/16 11:19:49;;;;;;;11.55;2.10;;;;;;;25.90;35.95;101564.50;5109441;27;20035;-73
2022/10/16 11:22:33;;;;;;;8.88;1.55;;;;;;;26.46;34.62;101564.53;5092075;28;20032;-72
2022/10/16 11:25:18;;;;;;;8.88;1.10;;;;;;;27.05;33.83;101563.28;5087079;28;20028;-72
2022/10/16 11:28:10;;;;;;;11.27;1.95;;;;;;;26.10;35.37;101573.13;5091009;28;20035;-73
2022/10/16 11:30:59;;;;;;;8.93;1.48;;;;;;;25.33;36.56;101578.72;5090279;28;20552;-73
2022/10/16 11:33:31;;;;;;;9.45;1.73;;;;;;;24.50;37.66;101587.94;5089072;28;20118;-72
2022/10/16 11:36:23;;;;;;;18.15;1.60;;;;;;;26.04;35.64;101580.56;5090344;28;20028;-72